Aérodrome :
LOGIN :

S'inscrire | Disclaimer

   EN    FR    IT 

 










Légende :    VFR   VFR Marginal   IFR   IFR Intensif   IFR Très Intensif
Visi : 
Plafond : 
>= 8 km
>= 3000ft
5 à 8 km
1000 à 3000 ft
1500m à 5 km
500 à 1000 ft
800 à 1500m
200 à 500 ft
< 800m
< 200 ft
Symboles :   Orages  Brouillard  Fortes neiges  Fortes précipitations  Vent > 20 kt
SIGMETs :   Divers  Orages  Givrage  Turbulence  Onde Orograph.  Cendres Volcan.







- Altitude de l'aérodrome : 2425 ft


ETHA - Altenstadt Army

DERNIER METAR :
  • 131220Z 19005KT 9999 FEW150 03/M09 Q1011 BLU+BLU+

METARs EXPIRÉS :
  • 131120Z 20005KT 9999 FEW150 01/M06 Q1013 BLU+BLU+
  • 131020Z 22006KT 9999 FEW160 M00/M06 Q1015 BLU+BLU+
  • 130955Z 21008KT 9999 FEW170 M01/M06 Q1015 BLU+BLU+

TAF TAF ETHA
Valide du 13 à 12h jusqu'au 13 à 21h UTC


131120Z 1312/1321 21007KT 9999 NSW FEW070 SCT150
TEMPO 1319/1321 20010G20KT 3000 -SN SCT010 BKN025 OVC050
Pas de NOTAMs connus pour ce terrain.



MET'MAP, la Météo Aéronautique d'un coup d'oeil ! - Copyright ORBIFLY Décembre 2007 - Disclaimer

ORBIFLY MET'MAP TEAM :

Programmation & Développement : Alexandra Zaïnal
Conception & Développement : Baudouin d'Aumeries
Co-Programmation & Développement : Marc-Olivier Méhu
Soutien technique & logistique : Manuel Goepfert

Contact : metmap@orbifly.com




SOURCES & CREDITS :

   NOAA